sensor_id;sensor_type;location;lat;lon;timestamp;temperature;humidity
24402;DHT22;12539;48.808;11.292;2023-04-19T00:39:27;10.70;99.90
24402;DHT22;12539;48.808;11.292;2023-04-19T00:41:53;10.70;99.90
24402;DHT22;12539;48.808;11.292;2023-04-19T00:44:20;10.60;99.90
24402;DHT22;12539;48.808;11.292;2023-04-19T00:46:46;10.60;99.90
24402;DHT22;12539;48.808;11.292;2023-04-19T00:49:12;10.60;99.90
24402;DHT22;12539;48.808;11.292;2023-04-19T00:51:40;10.60;99.90
24402;DHT22;12539;48.808;11.292;2023-04-19T00:54:06;10.60;99.90
24402;DHT22;12539;48.808;11.292;2023-04-19T00:56:34;10.70;99.90
24402;DHT22;12539;48.808;11.292;2023-04-19T00:59:00;10.70;99.90
24402;DHT22;12539;48.808;11.292;2023-04-19T01:01:26;10.70;99.90
24402;DHT22;12539;48.808;11.292;2023-04-19T01:03:53;10.70;99.90
24402;DHT22;12539;48.808;11.292;2023-04-19T01:06:19;10.80;99.90
24402;DHT22;12539;48.808;11.292;2023-04-19T01:08:45;10.80;99.90
24402;DHT22;12539;48.808;11.292;2023-04-19T01:11:11;10.80;99.90
24402;DHT22;12539;48.808;11.292;2023-04-19T01:13:37;10.70;99.90
24402;DHT22;12539;48.808;11.292;2023-04-19T01:16:02;10.70;99.90
24402;DHT22;12539;48.808;11.292;2023-04-19T01:18:28;10.70;99.90
24402;DHT22;12539;48.808;11.292;2023-04-19T01:21:00;10.80;99.90
24402;DHT22;12539;48.808;11.292;2023-04-19T01:23:25;10.70;99.90
24402;DHT22;12539;48.808;11.292;2023-04-19T01:25:51;10.70;99.90
24402;DHT22;12539;48.808;11.292;2023-04-19T01:28:21;10.70;99.90
24402;DHT22;12539;48.808;11.292;2023-04-19T01:30:47;10.70;99.90
24402;DHT22;12539;48.808;11.292;2023-04-19T01:33:15;10.70;99.90
24402;DHT22;12539;48.808;11.292;2023-04-19T01:35:41;10.70;99.90
24402;DHT22;12539;48.808;11.292;2023-04-19T01:38:07;10.70;99.90
24402;DHT22;12539;48.808;11.292;2023-04-19T01:40:32;10.60;99.90
24402;DHT22;12539;48.808;11.292;2023-04-19T01:42:58;10.70;99.90
24402;DHT22;12539;48.808;11.292;2023-04-19T01:45:24;10.60;99.90
24402;DHT22;12539;48.808;11.292;2023-04-19T01:47:50;10.60;99.90
24402;DHT22;12539;48.808;11.292;2023-04-19T01:50:16;10.60;99.90
24402;DHT22;12539;48.808;11.292;2023-04-19T01:52:42;10.60;99.90
24402;DHT22;12539;48.808;11.292;2023-04-19T01:55:08;10.60;99.90
24402;DHT22;12539;48.808;11.292;2023-04-19T01:57:33;10.60;99.90
24402;DHT22;12539;48.808;11.292;2023-04-19T02:00:00;10.60;99.90
24402;DHT22;12539;48.808;11.292;2023-04-19T02:02:26;10.60;99.90
24402;DHT22;12539;48.808;11.292;2023-04-19T02:04:51;10.50;99.90
24402;DHT22;12539;48.808;11.292;2023-04-19T02:07:17;10.50;99.90
24402;DHT22;12539;48.808;11.292;2023-04-19T02:09:42;10.60;99.90
24402;DHT22;12539;48.808;11.292;2023-04-19T02:12:08;10.50;99.90
24402;DHT22;12539;48.808;11.292;2023-04-19T02:14:34;10.50;99.90
24402;DHT22;12539;48.808;11.292;2023-04-19T02:17:00;10.60;99.90
24402;DHT22;12539;48.808;11.292;2023-04-19T02:19:26;10.50;99.90
24402;DHT22;12539;48.808;11.292;2023-04-19T02:21:51;10.50;99.90
24402;DHT22;12539;48.808;11.292;2023-04-19T02:24:22;10.50;99.90
24402;DHT22;12539;48.808;11.292;2023-04-19T02:26:48;10.50;99.90
24402;DHT22;12539;48.808;11.292;2023-04-19T02:29:14;10.50;99.90
24402;DHT22;12539;48.808;11.292;2023-04-19T02:31:41;10.50;99.90
24402;DHT22;12539;48.808;11.292;2023-04-19T02:34:09;10.50;99.90
24402;DHT22;12539;48.808;11.292;2023-04-19T02:36:35;10.50;99.90
24402;DHT22;12539;48.808;11.292;2023-04-19T02:39:01;10.50;99.90
24402;DHT22;12539;48.808;11.292;2023-04-19T02:41:26;10.50;99.90
24402;DHT22;12539;48.808;11.292;2023-04-19T02:43:52;10.50;99.90
24402;DHT22;12539;48.808;11.292;2023-04-19T02:46:18;10.50;99.90
24402;DHT22;12539;48.808;11.292;2023-04-19T02:48:43;10.50;99.90
24402;DHT22;12539;48.808;11.292;2023-04-19T02:51:14;10.50;99.90
24402;DHT22;12539;48.808;11.292;2023-04-19T02:53:41;10.50;99.90
24402;DHT22;12539;48.808;11.292;2023-04-19T02:56:07;10.50;99.90
24402;DHT22;12539;48.808;11.292;2023-04-19T02:58:32;10.50;99.90
24402;DHT22;12539;48.808;11.292;2023-04-19T03:00:58;10.50;99.90
24402;DHT22;12539;48.808;11.292;2023-04-19T03:03:27;10.40;99.90
24402;DHT22;12539;48.808;11.292;2023-04-19T03:05:52;10.40;99.90
24402;DHT22;12539;48.808;11.292;2023-04-19T03:08:18;10.20;99.90
24402;DHT22;12539;48.808;11.292;2023-04-19T03:10:44;10.10;99.90
24402;DHT22;12539;48.808;11.292;2023-04-19T03:13:09;10.00;99.90
24402;DHT22;12539;48.808;11.292;2023-04-19T03:15:35;10.00;99.90
24402;DHT22;12539;48.808;11.292;2023-04-19T03:18:01;10.00;99.90
24402;DHT22;12539;48.808;11.292;2023-04-19T03:20:27;9.90;99.90
24402;DHT22;12539;48.808;11.292;2023-04-19T03:22:52;9.90;99.90
24402;DHT22;12539;48.808;11.292;2023-04-19T03:25:18;9.80;99.90
24402;DHT22;12539;48.808;11.292;2023-04-19T03:27:44;9.70;99.90
24402;DHT22;12539;48.808;11.292;2023-04-19T03:30:11;9.60;99.90
24402;DHT22;12539;48.808;11.292;2023-04-19T03:32:37;9.50;99.90
24402;DHT22;12539;48.808;11.292;2023-04-19T03:35:02;9.50;99.90
24402;DHT22;12539;48.808;11.292;2023-04-19T03:37:28;9.50;99.90
24402;DHT22;12539;48.808;11.292;2023-04-19T03:39:54;9.50;99.90
24402;DHT22;12539;48.808;11.292;2023-04-19T03:42:19;9.50;99.90
24402;DHT22;12539;48.808;11.292;2023-04-19T03:44:45;9.60;99.90
24402;DHT22;12539;48.808;11.292;2023-04-19T03:47:11;9.60;99.90
24402;DHT22;12539;48.808;11.292;2023-04-19T03:49:36;9.70;99.90
24402;DHT22;12539;48.808;11.292;2023-04-19T03:52:02;9.80;99.90
24402;DHT22;12539;48.808;11.292;2023-04-19T03:54:28;9.80;99.90
24402;DHT22;12539;48.808;11.292;2023-04-19T03:56:53;9.80;99.90
24402;DHT22;12539;48.808;11.292;2023-04-19T03:59:19;9.80;99.90
24402;DHT22;12539;48.808;11.292;2023-04-19T04:01:45;9.80;99.90
24402;DHT22;12539;48.808;11.292;2023-04-19T04:04:10;9.80;99.90
24402;DHT22;12539;48.808;11.292;2023-04-19T04:06:36;9.80;99.90
24402;DHT22;12539;48.808;11.292;2023-04-19T04:09:02;9.90;99.90
24402;DHT22;12539;48.808;11.292;2023-04-19T04:11:28;10.00;99.90
24402;DHT22;12539;48.808;11.292;2023-04-19T04:13:55;10.00;99.90
24402;DHT22;12539;48.808;11.292;2023-04-19T04:16:21;10.00;99.90
24402;DHT22;12539;48.808;11.292;2023-04-19T04:18:47;10.00;99.90
24402;DHT22;12539;48.808;11.292;2023-04-19T04:21:12;10.00;99.90
24402;DHT22;12539;48.808;11.292;2023-04-19T04:23:38;10.00;99.90
24402;DHT22;12539;48.808;11.292;2023-04-19T04:26:04;10.10;99.90
24402;DHT22;12539;48.808;11.292;2023-04-19T04:28:31;10.00;99.90
24402;DHT22;12539;48.808;11.292;2023-04-19T04:30:58;10.10;99.90
24402;DHT22;12539;48.808;11.292;2023-04-19T04:33:25;10.10;99.90
24402;DHT22;12539;48.808;11.292;2023-04-19T04:35:52;10.10;99.90
24402;DHT22;12539;48.808;11.292;2023-04-19T04:38:18;10.00;99.90
24402;DHT22;12539;48.808;11.292;2023-04-19T04:40:51;10.00;99.90
24402;DHT22;12539;48.808;11.292;2023-04-19T04:43:23;10.00;99.90
24402;DHT22;12539;48.808;11.292;2023-04-19T04:45:48;10.00;99.90
24402;DHT22;12539;48.808;11.292;2023-04-19T04:48:14;10.00;99.90
24402;DHT22;12539;48.808;11.292;2023-04-19T04:50:40;10.00;99.90
24402;DHT22;12539;48.808;11.292;2023-04-19T04:53:06;10.10;99.90
24402;DHT22;12539;48.808;11.292;2023-04-19T04:55:33;10.10;99.90
24402;DHT22;12539;48.808;11.292;2023-04-19T04:57:59;10.20;99.90
24402;DHT22;12539;48.808;11.292;2023-04-19T05:00:24;10.20;99.90
24402;DHT22;12539;48.808;11.292;2023-04-19T05:02:50;10.20;99.90
24402;DHT22;12539;48.808;11.292;2023-04-19T05:05:16;10.30;99.90
24402;DHT22;12539;48.808;11.292;2023-04-19T05:07:41;10.40;99.90
24402;DHT22;12539;48.808;11.292;2023-04-19T05:10:08;10.40;99.90
24402;DHT22;12539;48.808;11.292;2023-04-19T05:12:33;10.50;99.90
24402;DHT22;12539;48.808;11.292;2023-04-19T05:14:59;10.50;99.90
24402;DHT22;12539;48.808;11.292;2023-04-19T05:17:25;10.60;99.90
24402;DHT22;12539;48.808;11.292;2023-04-19T05:19:50;10.60;99.90
24402;DHT22;12539;48.808;11.292;2023-04-19T05:22:16;10.60;99.90
24402;DHT22;12539;48.808;11.292;2023-04-19T05:24:44;10.60;99.90
24402;DHT22;12539;48.808;11.292;2023-04-19T05:27:12;10.70;99.90
24402;DHT22;12539;48.808;11.292;2023-04-19T05:29:37;10.70;99.90
24402;DHT22;12539;48.808;11.292;2023-04-19T05:32:03;10.80;99.90
24402;DHT22;12539;48.808;11.292;2023-04-19T05:34:29;10.80;99.90
24402;DHT22;12539;48.808;11.292;2023-04-19T05:36:55;10.90;99.90
24402;DHT22;12539;48.808;11.292;2023-04-19T05:39:20;11.00;99.90
24402;DHT22;12539;48.808;11.292;2023-04-19T05:41:46;11.00;99.90
24402;DHT22;12539;48.808;11.292;2023-04-19T05:44:12;11.00;99.90
24402;DHT22;12539;48.808;11.292;2023-04-19T05:46:37;11.10;99.90
24402;DHT22;12539;48.808;11.292;2023-04-19T05:49:03;11.10;99.90
24402;DHT22;12539;48.808;11.292;2023-04-19T05:51:29;11.30;99.90
24402;DHT22;12539;48.808;11.292;2023-04-19T05:53:56;11.90;99.90
24402;DHT22;12539;48.808;11.292;2023-04-19T05:56:21;13.20;99.90
24402;DHT22;12539;48.808;11.292;2023-04-19T05:58:47;14.60;99.90
24402;DHT22;12539;48.808;11.292;2023-04-19T06:01:13;15.80;99.50
24402;DHT22;12539;48.808;11.292;2023-04-19T06:03:38;16.70;96.50
24402;DHT22;12539;48.808;11.292;2023-04-19T06:06:04;17.30;93.30
24402;DHT22;12539;48.808;11.292;2023-04-19T06:08:30;17.20;91.20
24402;DHT22;12539;48.808;11.292;2023-04-19T06:10:56;16.50;90.30
24402;DHT22;12539;48.808;11.292;2023-04-19T06:13:22;15.80;91.30
24402;DHT22;12539;48.808;11.292;2023-04-19T06:15:48;15.10;92.40
24402;DHT22;12539;48.808;11.292;2023-04-19T06:18:14;14.40;93.20
24402;DHT22;12539;48.808;11.292;2023-04-19T06:20:40;14.00;94.00
24402;DHT22;12539;48.808;11.292;2023-04-19T06:23:06;13.70;95.80
24402;DHT22;12539;48.808;11.292;2023-04-19T06:25:32;13.50;96.30
24402;DHT22;12539;48.808;11.292;2023-04-19T06:27:57;13.50;96.90
24402;DHT22;12539;48.808;11.292;2023-04-19T06:30:23;13.40;96.40
24402;DHT22;12539;48.808;11.292;2023-04-19T06:32:49;13.50;97.00
24402;DHT22;12539;48.808;11.292;2023-04-19T06:35:15;13.50;97.10
24402;DHT22;12539;48.808;11.292;2023-04-19T06:37:40;13.40;96.80
24402;DHT22;12539;48.808;11.292;2023-04-19T06:40:06;13.30;97.00
24402;DHT22;12539;48.808;11.292;2023-04-19T06:42:36;13.30;97.20
24402;DHT22;12539;48.808;11.292;2023-04-19T06:45:02;13.40;97.30
24402;DHT22;12539;48.808;11.292;2023-04-19T06:47:28;13.60;97.10
24402;DHT22;12539;48.808;11.292;2023-04-19T06:49:55;13.60;96.70
24402;DHT22;12539;48.808;11.292;2023-04-19T06:52:21;13.60;96.50
24402;DHT22;12539;48.808;11.292;2023-04-19T06:54:47;13.50;96.00
24402;DHT22;12539;48.808;11.292;2023-04-19T06:57:14;13.40;95.80
24402;DHT22;12539;48.808;11.292;2023-04-19T06:59:40;13.20;95.80
24402;DHT22;12539;48.808;11.292;2023-04-19T07:02:06;13.00;95.80
24402;DHT22;12539;48.808;11.292;2023-04-19T07:04:32;13.00;95.60
24402;DHT22;12539;48.808;11.292;2023-04-19T07:06:57;13.00;95.40
24402;DHT22;12539;48.808;11.292;2023-04-19T07:09:23;12.90;96.00
24402;DHT22;12539;48.808;11.292;2023-04-19T07:11:49;13.00;96.30
24402;DHT22;12539;48.808;11.292;2023-04-19T07:14:16;13.10;95.80
24402;DHT22;12539;48.808;11.292;2023-04-19T07:16:44;13.10;95.60
24402;DHT22;12539;48.808;11.292;2023-04-19T07:19:10;13.20;95.80
24402;DHT22;12539;48.808;11.292;2023-04-19T07:21:36;13.40;95.60
24402;DHT22;12539;48.808;11.292;2023-04-19T07:24:03;13.50;94.70
24402;DHT22;12539;48.808;11.292;2023-04-19T07:26:29;13.70;94.70
24402;DHT22;12539;48.808;11.292;2023-04-19T07:28:55;13.90;94.90
24402;DHT22;12539;48.808;11.292;2023-04-19T07:31:21;14.20;94.50
24402;DHT22;12539;48.808;11.292;2023-04-19T07:33:49;14.40;94.30
24402;DHT22;12539;48.808;11.292;2023-04-19T07:36:15;14.60;93.90
24402;DHT22;12539;48.808;11.292;2023-04-19T07:38:41;14.60;93.30
24402;DHT22;12539;48.808;11.292;2023-04-19T07:41:06;14.50;93.10
24402;DHT22;12539;48.808;11.292;2023-04-19T07:43:33;14.50;93.20
24402;DHT22;12539;48.808;11.292;2023-04-19T07:45:58;14.40;93.40
24402;DHT22;12539;48.808;11.292;2023-04-19T07:48:24;14.40;93.00
24402;DHT22;12539;48.808;11.292;2023-04-19T07:50:50;14.40;93.00
24402;DHT22;12539;48.808;11.292;2023-04-19T07:53:16;14.30;92.80
24402;DHT22;12539;48.808;11.292;2023-04-19T07:55:43;14.20;93.30
24402;DHT22;12539;48.808;11.292;2023-04-19T07:58:08;14.30;93.10
24402;DHT22;12539;48.808;11.292;2023-04-19T08:00:34;14.30;93.50
24402;DHT22;12539;48.808;11.292;2023-04-19T08:03:01;14.40;92.60
24402;DHT22;12539;48.808;11.292;2023-04-19T08:05:28;14.40;92.70
24402;DHT22;12539;48.808;11.292;2023-04-19T08:07:54;14.40;92.10
24402;DHT22;12539;48.808;11.292;2023-04-19T08:10:20;14.30;92.10
24402;DHT22;12539;48.808;11.292;2023-04-19T08:12:46;14.30;92.40
24402;DHT22;12539;48.808;11.292;2023-04-19T08:15:11;14.30;92.70
24402;DHT22;12539;48.808;11.292;2023-04-19T08:17:39;14.30;92.80
24402;DHT22;12539;48.808;11.292;2023-04-19T08:20:06;14.30;92.50
24402;DHT22;12539;48.808;11.292;2023-04-19T08:22:32;14.50;92.80
24402;DHT22;12539;48.808;11.292;2023-04-19T08:24:58;14.70;92.70
24402;DHT22;12539;48.808;11.292;2023-04-19T08:27:23;14.90;92.10
24402;DHT22;12539;48.808;11.292;2023-04-19T08:29:51;15.00;91.80
24402;DHT22;12539;48.808;11.292;2023-04-19T08:32:17;15.10;91.00
24402;DHT22;12539;48.808;11.292;2023-04-19T08:34:42;15.20;90.80
24402;DHT22;12539;48.808;11.292;2023-04-19T08:37:08;15.20;90.70
24402;DHT22;12539;48.808;11.292;2023-04-19T08:39:34;15.20;90.70
24402;DHT22;12539;48.808;11.292;2023-04-19T08:42:09;15.20;90.60
24402;DHT22;12539;48.808;11.292;2023-04-19T08:44:36;15.20;90.30
24402;DHT22;12539;48.808;11.292;2023-04-19T08:47:06;15.10;90.20
24402;DHT22;12539;48.808;11.292;2023-04-19T08:49:35;15.20;90.00
24402;DHT22;12539;48.808;11.292;2023-04-19T08:52:04;15.20;90.10
24402;DHT22;12539;48.808;11.292;2023-04-19T08:54:30;15.20;90.10
24402;DHT22;12539;48.808;11.292;2023-04-19T08:57:00;15.20;90.30
24402;DHT22;12539;48.808;11.292;2023-04-19T08:59:27;15.10;89.30
24402;DHT22;12539;48.808;11.292;2023-04-19T09:02:04;15.00;90.00
24402;DHT22;12539;48.808;11.292;2023-04-19T09:04:36;14.90;89.40
24402;DHT22;12539;48.808;11.292;2023-04-19T09:07:01;14.70;89.80
24402;DHT22;12539;48.808;11.292;2023-04-19T09:09:29;14.60;90.20
24402;DHT22;12539;48.808;11.292;2023-04-19T09:11:55;14.60;90.20
24402;DHT22;12539;48.808;11.292;2023-04-19T09:14:24;14.50;89.80
24402;DHT22;12539;48.808;11.292;2023-04-19T09:16:50;14.40;90.20
24402;DHT22;12539;48.808;11.292;2023-04-19T09:19:16;14.20;90.40
24402;DHT22;12539;48.808;11.292;2023-04-19T09:21:42;14.20;90.60
24402;DHT22;12539;48.808;11.292;2023-04-19T09:24:08;14.00;90.90
24402;DHT22;12539;48.808;11.292;2023-04-19T09:26:35;13.90;91.10
24402;DHT22;12539;48.808;11.292;2023-04-19T09:29:05;13.70;91.10
24402;DHT22;12539;48.808;11.292;2023-04-19T09:31:36;13.60;91.70
24402;DHT22;12539;48.808;11.292;2023-04-19T09:34:15;13.40;92.40
24402;DHT22;12539;48.808;11.292;2023-04-19T09:36:41;13.20;92.90
24402;DHT22;12539;48.808;11.292;2023-04-19T09:39:07;13.00;93.40
24402;DHT22;12539;48.808;11.292;2023-04-19T09:41:33;12.80;93.80
24402;DHT22;12539;48.808;11.292;2023-04-19T09:44:10;12.60;94.30
24402;DHT22;12539;48.808;11.292;2023-04-19T09:46:37;12.50;95.10
24402;DHT22;12539;48.808;11.292;2023-04-19T09:49:22;12.40;95.70
24402;DHT22;12539;48.808;11.292;2023-04-19T09:51:52;12.40;96.20
24402;DHT22;12539;48.808;11.292;2023-04-19T09:54:20;12.30;96.60
24402;DHT22;12539;48.808;11.292;2023-04-19T09:56:47;12.20;97.00
24402;DHT22;12539;48.808;11.292;2023-04-19T09:59:13;12.10;97.80
24402;DHT22;12539;48.808;11.292;2023-04-19T10:01:42;12.00;98.70
24402;DHT22;12539;48.808;11.292;2023-04-19T10:04:10;12.00;99.60
24402;DHT22;12539;48.808;11.292;2023-04-19T10:06:53;11.90;99.90
24402;DHT22;12539;48.808;11.292;2023-04-19T10:09:20;11.90;99.90
24402;DHT22;12539;48.808;11.292;2023-04-19T10:11:51;11.80;99.90
24402;DHT22;12539;48.808;11.292;2023-04-19T10:14:23;11.70;99.90
24402;DHT22;12539;48.808;11.292;2023-04-19T10:16:49;11.50;99.90
24402;DHT22;12539;48.808;11.292;2023-04-19T10:19:19;11.40;99.90
24402;DHT22;12539;48.808;11.292;2023-04-19T10:21:47;11.30;99.90
24402;DHT22;12539;48.808;11.292;2023-04-19T10:24:14;11.30;99.90
24402;DHT22;12539;48.808;11.292;2023-04-19T10:27:09;11.20;99.90
24402;DHT22;12539;48.808;11.292;2023-04-19T10:30:01;11.10;99.90
24402;DHT22;12539;48.808;11.292;2023-04-19T10:32:37;11.10;99.90
24402;DHT22;12539;48.808;11.292;2023-04-19T10:35:15;11.00;99.90
24402;DHT22;12539;48.808;11.292;2023-04-19T10:38:07;11.00;99.90
24402;DHT22;12539;48.808;11.292;2023-04-19T10:40:55;10.90;99.90
24402;DHT22;12539;48.808;11.292;2023-04-19T10:43:22;10.80;99.90
24402;DHT22;12539;48.808;11.292;2023-04-19T10:45:49;10.80;99.90
24402;DHT22;12539;48.808;11.292;2023-04-19T10:51:17;10.90;99.90
24402;DHT22;12539;48.808;11.292;2023-04-19T11:07:18;11.00;99.90
24402;DHT22;12539;48.808;11.292;2023-04-19T11:09:48;11.00;99.90
24402;DHT22;12539;48.808;11.292;2023-04-19T11:12:18;11.00;99.90
24402;DHT22;12539;48.808;11.292;2023-04-19T11:14:52;11.00;99.90
24402;DHT22;12539;48.808;11.292;2023-04-19T11:17:19;11.00;99.90
24402;DHT22;12539;48.808;11.292;2023-04-19T11:20:06;10.90;99.90
24402;DHT22;12539;48.808;11.292;2023-04-19T11:22:41;10.90;99.90
24402;DHT22;12539;48.808;11.292;2023-04-19T11:25:15;10.80;99.90
24402;DHT22;12539;48.808;11.292;2023-04-19T11:27:43;10.70;99.90
24402;DHT22;12539;48.808;11.292;2023-04-19T11:30:29;10.70;99.90
24402;DHT22;12539;48.808;11.292;2023-04-19T11:32:56;10.70;99.90
24402;DHT22;12539;48.808;11.292;2023-04-19T11:35:27;10.60;99.90
24402;DHT22;12539;48.808;11.292;2023-04-19T11:37:54;10.60;99.90
24402;DHT22;12539;48.808;11.292;2023-04-19T11:40:22;10.60;99.90
24402;DHT22;12539;48.808;11.292;2023-04-19T11:42:59;10.50;99.90
24402;DHT22;12539;48.808;11.292;2023-04-19T11:45:30;10.40;99.90
24402;DHT22;12539;48.808;11.292;2023-04-19T11:47:56;10.30;99.90
24402;DHT22;12539;48.808;11.292;2023-04-19T11:50:39;10.30;99.90
24402;DHT22;12539;48.808;11.292;2023-04-19T11:55:35;10.20;99.90
24402;DHT22;12539;48.808;11.292;2023-04-19T11:58:01;10.20;99.90
24402;DHT22;12539;48.808;11.292;2023-04-19T12:00:27;10.20;99.90
24402;DHT22;12539;48.808;11.292;2023-04-19T12:02:53;10.20;99.90
24402;DHT22;12539;48.808;11.292;2023-04-19T12:05:19;10.20;99.90
24402;DHT22;12539;48.808;11.292;2023-04-19T12:08:02;10.20;99.90
24402;DHT22;12539;48.808;11.292;2023-04-19T12:10:32;10.20;99.90
24402;DHT22;12539;48.808;11.292;2023-04-19T12:12:59;10.20;99.90
24402;DHT22;12539;48.808;11.292;2023-04-19T12:15:44;10.30;99.90
24402;DHT22;12539;48.808;11.292;2023-04-19T12:18:10;10.20;99.90
24402;DHT22;12539;48.808;11.292;2023-04-19T12:20:43;10.20;99.90
24402;DHT22;12539;48.808;11.292;2023-04-19T12:23:09;10.30;99.90
24402;DHT22;12539;48.808;11.292;2023-04-19T12:25:41;10.30;99.90
24402;DHT22;12539;48.808;11.292;2023-04-19T12:28:07;10.40;99.90
24402;DHT22;12539;48.808;11.292;2023-04-19T12:30:34;10.40;99.90
24402;DHT22;12539;48.808;11.292;2023-04-19T12:33:02;10.50;99.90
24402;DHT22;12539;48.808;11.292;2023-04-19T12:35:28;10.50;99.90
24402;DHT22;12539;48.808;11.292;2023-04-19T12:37:55;10.50;99.90
24402;DHT22;12539;48.808;11.292;2023-04-19T12:40:21;10.50;99.90
24402;DHT22;12539;48.808;11.292;2023-04-19T12:42:53;10.50;99.90
24402;DHT22;12539;48.808;11.292;2023-04-19T12:45:19;10.50;99.90
24402;DHT22;12539;48.808;11.292;2023-04-19T12:47:46;10.50;99.90
24402;DHT22;12539;48.808;11.292;2023-04-19T12:50:13;10.50;99.90
24402;DHT22;12539;48.808;11.292;2023-04-19T12:52:40;10.60;99.90
24402;DHT22;12539;48.808;11.292;2023-04-19T12:55:06;10.60;99.90
24402;DHT22;12539;48.808;11.292;2023-04-19T12:57:32;10.70;99.90
24402;DHT22;12539;48.808;11.292;2023-04-19T12:59:58;10.70;99.90
24402;DHT22;12539;48.808;11.292;2023-04-19T13:02:24;10.70;99.90
24402;DHT22;12539;48.808;11.292;2023-04-19T13:04:49;10.80;99.90
24402;DHT22;12539;48.808;11.292;2023-04-19T13:07:16;10.70;99.90
24402;DHT22;12539;48.808;11.292;2023-04-19T13:09:41;10.70;99.90
24402;DHT22;12539;48.808;11.292;2023-04-19T13:12:07;10.80;99.90
24402;DHT22;12539;48.808;11.292;2023-04-19T13:14:33;10.80;99.90
24402;DHT22;12539;48.808;11.292;2023-04-19T13:16:58;10.80;99.90
24402;DHT22;12539;48.808;11.292;2023-04-19T13:19:24;10.90;99.90
24402;DHT22;12539;48.808;11.292;2023-04-19T13:21:51;11.00;99.90
24402;DHT22;12539;48.808;11.292;2023-04-19T13:24:16;11.00;99.90
24402;DHT22;12539;48.808;11.292;2023-04-19T13:26:42;11.10;99.90
24402;DHT22;12539;48.808;11.292;2023-04-19T13:29:10;11.10;99.90
24402;DHT22;12539;48.808;11.292;2023-04-19T13:31:36;11.20;99.90
24402;DHT22;12539;48.808;11.292;2023-04-19T13:34:01;11.10;99.90
24402;DHT22;12539;48.808;11.292;2023-04-19T13:36:27;11.00;99.90
24402;DHT22;12539;48.808;11.292;2023-04-19T13:38:53;10.90;99.90
24402;DHT22;12539;48.808;11.292;2023-04-19T13:41:19;10.90;99.90
24402;DHT22;12539;48.808;11.292;2023-04-19T13:43:45;10.90;99.90
24402;DHT22;12539;48.808;11.292;2023-04-19T13:46:11;10.90;99.90
24402;DHT22;12539;48.808;11.292;2023-04-19T13:48:37;11.00;99.90
24402;DHT22;12539;48.808;11.292;2023-04-19T13:51:03;11.00;99.90
24402;DHT22;12539;48.808;11.292;2023-04-19T13:53:29;11.00;99.90
24402;DHT22;12539;48.808;11.292;2023-04-19T13:55:55;11.10;99.90
24402;DHT22;12539;48.808;11.292;2023-04-19T13:58:21;11.10;99.90
24402;DHT22;12539;48.808;11.292;2023-04-19T14:00:46;11.10;99.90
24402;DHT22;12539;48.808;11.292;2023-04-19T14:03:13;11.10;99.90
24402;DHT22;12539;48.808;11.292;2023-04-19T14:05:38;11.10;99.90
24402;DHT22;12539;48.808;11.292;2023-04-19T14:08:04;11.10;99.90
24402;DHT22;12539;48.808;11.292;2023-04-19T14:10:30;11.10;99.90
24402;DHT22;12539;48.808;11.292;2023-04-19T14:12:56;11.10;99.90
24402;DHT22;12539;48.808;11.292;2023-04-19T14:15:21;11.10;99.90
24402;DHT22;12539;48.808;11.292;2023-04-19T14:17:48;11.10;99.90
24402;DHT22;12539;48.808;11.292;2023-04-19T14:20:15;11.10;99.90
24402;DHT22;12539;48.808;11.292;2023-04-19T14:22:41;11.10;99.90
24402;DHT22;12539;48.808;11.292;2023-04-19T14:25:07;11.20;99.90
24402;DHT22;12539;48.808;11.292;2023-04-19T14:27:33;11.30;99.90
24402;DHT22;12539;48.808;11.292;2023-04-19T14:29:59;11.40;99.90
24402;DHT22;12539;48.808;11.292;2023-04-19T14:32:25;11.50;99.90
24402;DHT22;12539;48.808;11.292;2023-04-19T14:34:52;11.60;99.90
24402;DHT22;12539;48.808;11.292;2023-04-19T14:37:19;11.70;99.90
24402;DHT22;12539;48.808;11.292;2023-04-19T14:39:45;11.70;99.90
24402;DHT22;12539;48.808;11.292;2023-04-19T14:42:12;11.80;99.90
24402;DHT22;12539;48.808;11.292;2023-04-19T14:44:38;11.90;99.90
24402;DHT22;12539;48.808;11.292;2023-04-19T14:47:23;11.90;99.90
24402;DHT22;12539;48.808;11.292;2023-04-19T14:49:48;12.00;99.90
24402;DHT22;12539;48.808;11.292;2023-04-19T14:52:15;12.00;99.90
24402;DHT22;12539;48.808;11.292;2023-04-19T14:54:41;12.00;99.90
24402;DHT22;12539;48.808;11.292;2023-04-19T14:57:07;12.00;99.90
24402;DHT22;12539;48.808;11.292;2023-04-19T14:59:33;12.00;99.90
24402;DHT22;12539;48.808;11.292;2023-04-19T15:01:59;12.00;99.90
24402;DHT22;12539;48.808;11.292;2023-04-19T15:04:25;12.00;99.90
24402;DHT22;12539;48.808;11.292;2023-04-19T15:06:50;12.00;99.90
24402;DHT22;12539;48.808;11.292;2023-04-19T15:09:16;11.90;99.90
24402;DHT22;12539;48.808;11.292;2023-04-19T15:11:42;11.90;99.90
24402;DHT22;12539;48.808;11.292;2023-04-19T15:14:07;11.90;99.90
24402;DHT22;12539;48.808;11.292;2023-04-19T15:16:34;11.70;99.90
24402;DHT22;12539;48.808;11.292;2023-04-19T15:19:00;11.60;99.90
24402;DHT22;12539;48.808;11.292;2023-04-19T15:21:27;11.50;99.90
24402;DHT22;12539;48.808;11.292;2023-04-19T15:23:53;11.40;99.90
24402;DHT22;12539;48.808;11.292;2023-04-19T15:26:19;11.40;99.90
24402;DHT22;12539;48.808;11.292;2023-04-19T15:28:46;11.30;99.90
24402;DHT22;12539;48.808;11.292;2023-04-19T15:31:11;11.30;99.90
24402;DHT22;12539;48.808;11.292;2023-04-19T15:33:37;11.40;99.90
24402;DHT22;12539;48.808;11.292;2023-04-19T15:36:03;11.50;99.90
24402;DHT22;12539;48.808;11.292;2023-04-19T15:38:30;11.60;99.90
24402;DHT22;12539;48.808;11.292;2023-04-19T15:40:56;11.80;99.90
24402;DHT22;12539;48.808;11.292;2023-04-19T15:43:23;11.80;99.90
24402;DHT22;12539;48.808;11.292;2023-04-19T15:45:49;11.80;99.90
24402;DHT22;12539;48.808;11.292;2023-04-19T15:48:15;11.80;99.90
24402;DHT22;12539;48.808;11.292;2023-04-19T15:50:41;11.70;99.90
24402;DHT22;12539;48.808;11.292;2023-04-19T15:53:07;11.70;99.90
24402;DHT22;12539;48.808;11.292;2023-04-19T15:55:33;11.70;99.90
24402;DHT22;12539;48.808;11.292;2023-04-19T15:57:59;11.70;99.90
24402;DHT22;12539;48.808;11.292;2023-04-19T16:00:25;11.70;99.90
24402;DHT22;12539;48.808;11.292;2023-04-19T16:02:52;11.70;99.90
24402;DHT22;12539;48.808;11.292;2023-04-19T16:05:18;11.70;99.90
24402;DHT22;12539;48.808;11.292;2023-04-19T16:07:44;11.60;99.90
24402;DHT22;12539;48.808;11.292;2023-04-19T16:10:11;11.50;99.90
24402;DHT22;12539;48.808;11.292;2023-04-19T16:12:37;11.60;99.90
24402;DHT22;12539;48.808;11.292;2023-04-19T16:15:04;11.50;99.90